createdAt,value
2016-12-19T00:00:56.082Z,1020.72
2016-12-19T00:01:55.926Z,1020.69
2016-12-19T00:02:56.122Z,1020.66
2016-12-19T00:03:56.263Z,1020.71
2016-12-19T00:04:55.922Z,1020.75
2016-12-19T00:05:55.993Z,1020.75
2016-12-19T00:06:56.081Z,1020.79
2016-12-19T00:07:56.495Z,1020.75
2016-12-19T00:08:56.150Z,1020.73
2016-12-19T00:09:56.028Z,1020.68
2016-12-19T00:10:56.020Z,1020.69
2016-12-19T00:11:56.254Z,1020.67
2016-12-19T00:12:56.086Z,1020.61
2016-12-19T00:13:56.192Z,1020.61
2016-12-19T00:14:56.073Z,1020.61
2016-12-19T00:15:56.214Z,1020.6
2016-12-19T00:16:56.279Z,1020.6
2016-12-19T00:17:56.202Z,1020.58
2016-12-19T00:18:56.378Z,1020.56
2016-12-19T00:19:56.193Z,1020.58
2016-12-19T00:20:56.325Z,1020.53
2016-12-19T00:21:56.199Z,1020.55
2016-12-19T00:22:56.246Z,1020.54
2016-12-19T00:23:56.697Z,1020.57
2016-12-19T00:24:56.279Z,1020.51
2016-12-19T00:25:56.277Z,1020.49
2016-12-19T00:26:56.394Z,1020.48
2016-12-19T00:27:56.561Z,1020.47
2016-12-19T00:28:56.462Z,1020.44
2016-12-19T00:29:56.388Z,1020.43
2016-12-19T00:30:56.486Z,1020.38
2016-12-19T00:31:56.598Z,1020.39
2016-12-19T00:32:56.431Z,1020.38
2016-12-19T00:33:56.398Z,1020.36
2016-12-19T00:34:56.556Z,1020.38
2016-12-19T00:35:56.538Z,1020.37
2016-12-19T00:36:56.440Z,1020.38
2016-12-19T00:37:56.507Z,1020.39
2016-12-19T00:38:56.439Z,1020.36
2016-12-19T00:39:56.518Z,1020.35
2016-12-19T00:40:56.494Z,1020.33
2016-12-19T00:41:56.535Z,1020.36
2016-12-19T00:42:56.516Z,1020.34
2016-12-19T00:43:56.835Z,1020.33
2016-12-19T00:44:56.850Z,1020.3
2016-12-19T00:45:56.733Z,1020.28
2016-12-19T00:46:56.645Z,1020.32
2016-12-19T00:47:57.044Z,1020.31
2016-12-19T00:48:56.713Z,1020.33
2016-12-19T00:49:56.578Z,1020.33
2016-12-19T00:50:56.696Z,1020.29
2016-12-19T00:51:57.058Z,1020.31
2016-12-19T00:52:56.610Z,1020.32
2016-12-19T00:53:56.872Z,1020.34
2016-12-19T00:54:56.958Z,1020.35
2016-12-19T00:55:56.797Z,1020.39
2016-12-19T00:56:56.631Z,1020.4
2016-12-19T00:57:56.812Z,1020.37
2016-12-19T00:58:57.126Z,1020.43
2016-12-19T00:59:56.653Z,1020.39
2016-12-19T01:00:56.825Z,1020.4
2016-12-19T01:01:56.948Z,1020.43
2016-12-19T01:02:56.747Z,1020.4
2016-12-19T01:03:56.976Z,1020.41
2016-12-19T01:04:56.892Z,1020.43
2016-12-19T01:05:56.996Z,1020.39
2016-12-19T01:06:57.055Z,1020.41
2016-12-19T01:07:56.916Z,1020.36
2016-12-19T01:08:57.081Z,1020.36
2016-12-19T01:09:56.944Z,1020.35
2016-12-19T01:10:57.261Z,1020.3
2016-12-19T01:11:56.944Z,1020.32
2016-12-19T01:12:57.186Z,1020.34
2016-12-19T01:13:56.981Z,1020.4
2016-12-19T01:14:57.006Z,1020.42
2016-12-19T01:15:57.095Z,1020.37
2016-12-19T01:16:57.364Z,1020.41
2016-12-19T01:17:57.050Z,1020.43
2016-12-19T01:18:57.079Z,1020.42
2016-12-19T01:19:57.047Z,1020.42
2016-12-19T01:20:57.513Z,1020.42
2016-12-19T01:21:57.123Z,1020.43
2016-12-19T01:22:57.038Z,1020.43
2016-12-19T01:23:57.191Z,1020.44
2016-12-19T01:24:57.319Z,1020.37
2016-12-19T01:25:57.136Z,1020.39
2016-12-19T01:26:57.194Z,1020.35
2016-12-19T01:27:57.388Z,1020.31
2016-12-19T01:28:57.362Z,1020.34
2016-12-19T01:29:57.398Z,1020.33
2016-12-19T01:30:57.407Z,1020.34
2016-12-19T01:31:57.312Z,1020.31
2016-12-19T01:32:57.360Z,1020.32
2016-12-19T01:33:57.401Z,1020.33
2016-12-19T01:34:57.396Z,1020.35
2016-12-19T01:35:57.368Z,1020.36
2016-12-19T01:36:57.287Z,1020.28
2016-12-19T01:37:57.268Z,1020.28
2016-12-19T01:38:57.520Z,1020.26
2016-12-19T01:39:57.247Z,1020.19
2016-12-19T01:40:57.322Z,1020.24
2016-12-19T01:41:57.324Z,1020.23
2016-12-19T01:42:57.536Z,1020.28
2016-12-19T01:43:57.503Z,1020.25
2016-12-19T01:44:57.389Z,1020.26
2016-12-19T01:45:57.368Z,1020.27
2016-12-19T01:46:57.368Z,1020.33
2016-12-19T01:47:57.427Z,1020.33
2016-12-19T01:48:57.629Z,1020.34
2016-12-19T01:49:57.452Z,1020.31
2016-12-19T01:50:57.563Z,1020.29
2016-12-19T01:51:57.769Z,1020.28
2016-12-19T01:52:57.572Z,1020.27
2016-12-19T01:53:57.607Z,1020.26
2016-12-19T01:54:57.710Z,1020.28
2016-12-19T01:55:57.859Z,1020.28
2016-12-19T01:56:57.622Z,1020.28
2016-12-19T01:57:57.708Z,1020.29
2016-12-19T01:58:57.982Z,1020.29
2016-12-19T01:59:57.690Z,1020.28
2016-12-19T02:00:57.905Z,1020.25
2016-12-19T02:01:57.623Z,1020.27
2016-12-19T02:02:57.674Z,1020.26
2016-12-19T02:03:57.750Z,1020.25
2016-12-19T02:04:57.747Z,1020.22
2016-12-19T02:05:57.850Z,1020.25
2016-12-19T02:06:57.981Z,1020.28
2016-12-19T02:07:57.802Z,1020.31
2016-12-19T02:08:57.915Z,1020.34
2016-12-19T02:09:57.885Z,1020.31
2016-12-19T02:10:57.842Z,1020.32
2016-12-19T02:11:57.775Z,1020.36
2016-12-19T02:12:58.123Z,1020.34
2016-12-19T02:13:58.111Z,1020.35
2016-12-19T02:14:57.840Z,1020.39
2016-12-19T02:15:57.939Z,1020.37
2016-12-19T02:16:57.863Z,1020.36
2016-12-19T02:17:57.955Z,1020.36
2016-12-19T02:18:57.951Z,1020.38
2016-12-19T02:19:58.233Z,1020.38
2016-12-19T02:20:57.859Z,1020.37
2016-12-19T02:21:57.979Z,1020.37
2016-12-19T02:22:57.953Z,1020.34
2016-12-19T02:23:57.933Z,1020.32
2016-12-19T02:24:57.979Z,1020.42
2016-12-19T02:25:57.959Z,1020.4
2016-12-19T02:26:57.937Z,1020.44
2016-12-19T02:27:58.217Z,1020.45
2016-12-19T02:28:57.942Z,1020.44
2016-12-19T02:29:58.045Z,1020.42
2016-12-19T02:30:57.950Z,1020.44
2016-12-19T02:31:58.029Z,1020.43
2016-12-19T02:32:58.167Z,1020.42
2016-12-19T02:33:58.245Z,1020.44
2016-12-19T02:34:58.394Z,1020.43
2016-12-19T02:35:58.127Z,1020.43
2016-12-19T02:36:58.344Z,1020.39
2016-12-19T02:37:58.580Z,1020.4
2016-12-19T02:38:58.591Z,1020.38
2016-12-19T02:39:58.272Z,1020.35
2016-12-19T02:40:58.311Z,1020.38
2016-12-19T02:41:58.283Z,1020.36
2016-12-19T02:42:58.618Z,1020.34
2016-12-19T02:43:58.287Z,1020.35
2016-12-19T02:44:58.257Z,1020.37
2016-12-19T02:45:58.279Z,1020.36
2016-12-19T02:46:58.232Z,1020.35
2016-12-19T02:47:58.315Z,1020.31
2016-12-19T02:48:58.402Z,1020.31
2016-12-19T02:49:58.537Z,1020.3
2016-12-19T02:50:58.525Z,1020.27
2016-12-19T02:51:58.337Z,1020.3
2016-12-19T02:52:58.519Z,1020.3
2016-12-19T02:53:58.332Z,1020.3
2016-12-19T02:54:58.560Z,1020.25
2016-12-19T02:55:58.442Z,1020.23
2016-12-19T02:56:58.541Z,1020.21
2016-12-19T02:57:58.849Z,1020.21
2016-12-19T02:58:58.484Z,1020.16
2016-12-19T02:59:58.512Z,1020.22
2016-12-19T03:00:58.443Z,1020.18
2016-12-19T03:01:58.488Z,1020.12
2016-12-19T03:02:58.463Z,1020.17
2016-12-19T03:03:58.613Z,1020.14
2016-12-19T03:04:58.574Z,1020.13
2016-12-19T03:05:58.542Z,1020.13
2016-12-19T03:06:58.515Z,1020.09
2016-12-19T03:07:58.602Z,1020.13
2016-12-19T03:08:58.529Z,1020.06
2016-12-19T03:09:58.549Z,1020.09
2016-12-19T03:10:58.758Z,1020.07
2016-12-19T03:11:58.720Z,1019.99
2016-12-19T03:12:58.879Z,1020
2016-12-19T03:13:58.895Z,1019.99
2016-12-19T03:14:58.766Z,1019.98
2016-12-19T03:15:58.745Z,1020.02
2016-12-19T03:16:58.726Z,1020.03
2016-12-19T03:17:58.934Z,1020.03
2016-12-19T03:18:58.712Z,1019.98
2016-12-19T03:19:59.073Z,1020.01
2016-12-19T03:20:58.864Z,1019.96
2016-12-19T03:21:58.766Z,1019.94
2016-12-19T03:22:59.155Z,1019.94
2016-12-19T03:23:58.850Z,1019.91
2016-12-19T03:24:59.188Z,1019.9
2016-12-19T03:25:58.959Z,1019.87
2016-12-19T03:26:58.876Z,1019.89
2016-12-19T03:27:59.075Z,1019.88
2016-12-19T03:28:59.299Z,1019.92
2016-12-19T03:29:59.049Z,1019.94
2016-12-19T03:30:59.001Z,1019.97
2016-12-19T03:31:58.967Z,1019.94
2016-12-19T03:32:58.962Z,1019.99
2016-12-19T03:33:59.062Z,1019.92
2016-12-19T03:34:59.145Z,1019.96
2016-12-19T03:35:59.067Z,1019.92
2016-12-19T03:36:59.119Z,1019.97
2016-12-19T03:37:59.042Z,1019.94
2016-12-19T03:38:59.229Z,1019.93
2016-12-19T03:39:59.172Z,1019.9
2016-12-19T03:40:59.044Z,1019.84
2016-12-19T03:41:59.030Z,1019.82
2016-12-19T03:42:59.033Z,1019.82
2016-12-19T03:43:59.179Z,1019.79
2016-12-19T03:44:59.385Z,1019.76
2016-12-19T03:45:59.201Z,1019.8
2016-12-19T03:46:59.070Z,1019.79
2016-12-19T03:47:59.330Z,1019.78
2016-12-19T03:48:59.409Z,1019.79
2016-12-19T03:49:59.270Z,1019.79
2016-12-19T03:50:59.572Z,1019.82
2016-12-19T03:51:59.707Z,1019.84
2016-12-19T03:52:59.203Z,1019.87
2016-12-19T03:53:59.424Z,1019.86
2016-12-19T03:54:59.398Z,1019.76
2016-12-19T03:55:59.268Z,1019.77
2016-12-19T03:56:59.486Z,1019.78
2016-12-19T03:57:59.286Z,1019.78
2016-12-19T03:58:59.616Z,1019.77
2016-12-19T03:59:59.666Z,1019.84
2016-12-19T04:00:59.311Z,1019.84
2016-12-19T04:01:59.590Z,1019.88
2016-12-19T04:02:59.357Z,1019.87
2016-12-19T04:03:59.491Z,1019.86
2016-12-19T04:04:59.519Z,1019.85
2016-12-19T04:05:59.419Z,1019.9
2016-12-19T04:06:59.445Z,1019.87
2016-12-19T04:07:59.951Z,1019.9
2016-12-19T04:08:59.519Z,1019.88
2016-12-19T04:09:59.777Z,1019.89
2016-12-19T04:10:59.571Z,1019.89
2016-12-19T04:11:59.440Z,1019.87
2016-12-19T04:12:59.679Z,1019.88
2016-12-19T04:13:59.740Z,1019.87
2016-12-19T04:14:59.648Z,1019.89
2016-12-19T04:15:59.510Z,1019.9
2016-12-19T04:17:00.118Z,1019.91
2016-12-19T04:17:59.857Z,1019.85
2016-12-19T04:18:59.773Z,1019.87
2016-12-19T04:19:59.846Z,1019.88
2016-12-19T04:20:59.678Z,1019.89
2016-12-19T04:21:59.635Z,1019.92
2016-12-19T04:22:59.789Z,1019.85
2016-12-19T04:23:59.758Z,1019.84
2016-12-19T04:24:59.906Z,1019.89
2016-12-19T04:25:59.802Z,1019.91
2016-12-19T04:27:00.194Z,1019.83
2016-12-19T04:27:59.703Z,1019.86
2016-12-19T04:28:59.810Z,1019.82
2016-12-19T04:29:59.674Z,1019.83
2016-12-19T04:30:59.730Z,1019.83
2016-12-19T04:32:00.233Z,1019.83
2016-12-19T04:32:59.870Z,1019.85
2016-12-19T04:33:59.858Z,1019.89
2016-12-19T04:34:59.846Z,1019.85
2016-12-19T04:35:59.863Z,1019.79
2016-12-19T04:36:59.881Z,1019.8
2016-12-19T04:37:59.885Z,1019.77
2016-12-19T04:39:00.358Z,1019.73
2016-12-19T04:40:00.229Z,1019.78
2016-12-19T04:41:00.324Z,1019.79
2016-12-19T04:42:00.369Z,1019.82
2016-12-19T04:43:00.417Z,1019.82
2016-12-19T04:43:59.928Z,1019.83
2016-12-19T04:45:00.250Z,1019.85
2016-12-19T04:46:00.413Z,1019.82
2016-12-19T04:47:00.469Z,1019.76
2016-12-19T04:48:00.255Z,1019.73
2016-12-19T04:49:00.417Z,1019.72
2016-12-19T04:49:59.959Z,1019.72
2016-12-19T04:51:00.125Z,1019.78
2016-12-19T04:52:00.879Z,1019.87
2016-12-19T04:53:00.499Z,1019.89
2016-12-19T04:54:00.198Z,1019.88
2016-12-19T04:55:00.208Z,1019.8
2016-12-19T04:56:00.163Z,1019.77
2016-12-19T04:57:00.216Z,1019.77
2016-12-19T04:58:00.351Z,1019.71
2016-12-19T04:59:00.561Z,1019.74
2016-12-19T05:00:00.224Z,1019.78
2016-12-19T05:01:00.637Z,1019.74
2016-12-19T05:02:00.121Z,1019.71
2016-12-19T05:03:00.617Z,1019.68
2016-12-19T05:04:00.303Z,1019.69
2016-12-19T05:05:00.595Z,1019.73
2016-12-19T05:06:00.597Z,1019.7
2016-12-19T05:07:00.780Z,1019.72
2016-12-19T05:08:00.855Z,1019.72
2016-12-19T05:09:00.541Z,1019.67
2016-12-19T05:10:01.071Z,1019.68
2016-12-19T05:11:00.494Z,1019.67
2016-12-19T05:12:00.826Z,1019.63
2016-12-19T05:13:01.038Z,1019.64
2016-12-19T05:14:00.640Z,1019.57
2016-12-19T05:15:01.000Z,1019.6
2016-12-19T05:16:00.570Z,1019.64
2016-12-19T05:17:01.056Z,1019.66
2016-12-19T05:18:01.267Z,1019.66
2016-12-19T05:19:00.527Z,1019.67
2016-12-19T05:20:00.934Z,1019.62
2016-12-19T05:21:01.139Z,1019.62
2016-12-19T05:22:00.938Z,1019.62
2016-12-19T05:23:00.915Z,1019.59
2016-12-19T05:24:01.114Z,1019.55
2016-12-19T05:25:00.581Z,1019.56
2016-12-19T05:26:00.725Z,1019.59
2016-12-19T05:27:00.691Z,1019.57
2016-12-19T05:28:00.654Z,1019.6
2016-12-19T05:29:01.074Z,1019.54
2016-12-19T05:30:01.142Z,1019.56
2016-12-19T05:31:01.120Z,1019.56
2016-12-19T05:32:01.025Z,1019.59
2016-12-19T05:33:01.286Z,1019.66
2016-12-19T05:34:01.090Z,1019.67
2016-12-19T05:35:01.202Z,1019.65
2016-12-19T05:36:00.857Z,1019.61
2016-12-19T05:37:01.111Z,1019.54
2016-12-19T05:38:01.276Z,1019.56
2016-12-19T05:39:01.025Z,1019.55
2016-12-19T05:40:00.997Z,1019.55
2016-12-19T05:41:00.994Z,1019.55
2016-12-19T05:42:01.271Z,1019.55
2016-12-19T05:43:00.960Z,1019.61
2016-12-19T05:44:02.093Z,1019.62
2016-12-19T05:45:01.131Z,1019.6
2016-12-19T05:46:01.512Z,1019.55
2016-12-19T05:47:01.478Z,1019.51
2016-12-19T05:48:01.579Z,1019.57
2016-12-19T05:49:01.139Z,1019.54
2016-12-19T05:50:01.005Z,1019.54
2016-12-19T05:51:01.041Z,1019.53
2016-12-19T05:52:01.081Z,1019.52
2016-12-19T05:53:01.719Z,1019.57
2016-12-19T05:54:01.380Z,1019.58
2016-12-19T05:55:01.027Z,1019.56
2016-12-19T05:56:00.991Z,1019.59
2016-12-19T05:57:01.341Z,1019.59
2016-12-19T05:58:01.398Z,1019.56
2016-12-19T05:59:01.991Z,1019.57
2016-12-19T06:00:01.532Z,1019.62
2016-12-19T06:01:02.727Z,1019.62
2016-12-19T06:02:01.939Z,1019.7
2016-12-19T06:03:01.556Z,1019.71
2016-12-19T06:04:01.600Z,1019.71
2016-12-19T06:05:02.052Z,1019.68
2016-12-19T06:06:01.742Z,1019.67
2016-12-19T06:07:01.403Z,1019.64
2016-12-19T06:08:01.428Z,1019.65
2016-12-19T06:09:01.514Z,1019.61
2016-12-19T06:10:01.437Z,1019.65
2016-12-19T06:11:01.868Z,1019.61
2016-12-19T06:12:01.926Z,1019.59
2016-12-19T06:13:01.761Z,1019.58
2016-12-19T06:14:01.987Z,1019.61
2016-12-19T06:15:02.448Z,1019.62
2016-12-19T06:16:02.162Z,1019.71
2016-12-19T06:17:01.777Z,1019.74
2016-12-19T06:18:02.391Z,1019.71
2016-12-19T06:19:01.697Z,1019.71
2016-12-19T06:20:01.773Z,1019.74
2016-12-19T06:21:01.343Z,1019.72
2016-12-19T06:22:01.505Z,1019.68
2016-12-19T06:23:01.897Z,1019.67
2016-12-19T06:24:01.880Z,1019.61
2016-12-19T06:25:01.435Z,1019.59
2016-12-19T06:26:01.684Z,1019.52
2016-12-19T06:27:01.517Z,1019.58
2016-12-19T06:28:01.465Z,1019.52
2016-12-19T06:29:01.429Z,1019.52
2016-12-19T06:30:01.335Z,1019.56
2016-12-19T06:31:01.719Z,1019.59
2016-12-19T06:32:01.459Z,1019.6
2016-12-19T06:33:01.544Z,1019.66
2016-12-19T06:34:01.541Z,1019.67
2016-12-19T06:35:01.782Z,1019.67
2016-12-19T06:36:01.704Z,1019.68
2016-12-19T06:37:01.993Z,1019.67
2016-12-19T06:38:01.719Z,1019.65
2016-12-19T06:39:01.649Z,1019.64
2016-12-19T06:40:01.922Z,1019.67
2016-12-19T06:41:02.076Z,1019.66
2016-12-19T06:42:01.930Z,1019.66
2016-12-19T06:43:01.671Z,1019.69
2016-12-19T06:44:02.026Z,1019.64
2016-12-19T06:45:01.938Z,1019.67
2016-12-19T06:46:01.813Z,1019.61
2016-12-19T06:47:01.897Z,1019.63
2016-12-19T06:48:01.740Z,1019.56
2016-12-19T06:49:01.851Z,1019.56
2016-12-19T06:50:01.866Z,1019.53
2016-12-19T06:51:02.042Z,1019.48
2016-12-19T06:52:01.796Z,1019.54
2016-12-19T06:53:02.026Z,1019.53
2016-12-19T06:54:01.837Z,1019.53
2016-12-19T06:55:03.778Z,1019.56
2016-12-19T06:56:02.005Z,1019.54
2016-12-19T06:57:02.103Z,1019.55
2016-12-19T06:58:02.045Z,1019.56
2016-12-19T06:59:01.983Z,1019.57
2016-12-19T07:00:02.332Z,1019.56
2016-12-19T07:01:02.481Z,1019.52
2016-12-19T07:02:01.989Z,1019.51
2016-12-19T07:03:02.406Z,1019.53
2016-12-19T07:04:02.352Z,1019.49
2016-12-19T07:05:02.214Z,1019.47
2016-12-19T07:06:01.970Z,1019.46
2016-12-19T07:07:02.353Z,1019.49
2016-12-19T07:08:02.317Z,1019.52
2016-12-19T07:09:02.451Z,1019.53
2016-12-19T07:10:02.921Z,1019.56
2016-12-19T07:11:02.628Z,1019.53
2016-12-19T07:12:02.378Z,1019.51
2016-12-19T07:13:02.212Z,1019.54
2016-12-19T07:14:02.353Z,1019.58
2016-12-19T07:15:02.125Z,1019.65
2016-12-19T07:16:02.720Z,1019.72
2016-12-19T07:17:02.198Z,1019.69
2016-12-19T07:18:02.327Z,1019.74
2016-12-19T07:20:02.239Z,1019.65
2016-12-19T07:27:03.682Z,1019.67
2016-12-19T07:28:02.417Z,1019.67
2016-12-19T07:29:02.228Z,1019.64
2016-12-19T07:30:03.771Z,1019.63
2016-12-19T07:31:03.094Z,1019.65
2016-12-19T07:32:02.513Z,1019.66
2016-12-19T07:33:02.582Z,1019.67
2016-12-19T07:34:02.548Z,1019.67
2016-12-19T07:35:02.540Z,1019.65
2016-12-19T07:36:02.747Z,1019.67
2016-12-19T07:37:02.708Z,1019.68
2016-12-19T07:38:03.062Z,1019.66
2016-12-19T07:39:02.462Z,1019.68
2016-12-19T07:40:02.526Z,1019.69
2016-12-19T07:41:03.349Z,1019.65
2016-12-19T07:42:02.788Z,1019.65
2016-12-19T07:43:04.419Z,1019.59
2016-12-19T07:44:03.631Z,1019.55
2016-12-19T07:45:02.802Z,1019.51
2016-12-19T07:46:03.012Z,1019.5
2016-12-19T07:47:02.556Z,1019.5
2016-12-19T07:48:02.813Z,1019.5
2016-12-19T07:49:02.579Z,1019.51
2016-12-19T07:50:02.804Z,1019.53
2016-12-19T07:51:02.912Z,1019.53
2016-12-19T07:52:03.015Z,1019.56
2016-12-19T07:53:02.881Z,1019.59
2016-12-19T07:54:02.799Z,1019.6
2016-12-19T07:55:02.973Z,1019.6
2016-12-19T07:56:02.948Z,1019.57
2016-12-19T07:57:03.080Z,1019.54
2016-12-19T07:58:03.128Z,1019.53
2016-12-19T07:59:02.788Z,1019.54
2016-12-19T08:00:02.972Z,1019.55
2016-12-19T08:01:02.850Z,1019.57
2016-12-19T08:02:03.167Z,1019.55
2016-12-19T08:03:02.877Z,1019.57
2016-12-19T08:04:02.960Z,1019.56
2016-12-19T08:05:03.144Z,1019.59
2016-12-19T08:06:03.221Z,1019.62
2016-12-19T08:07:03.084Z,1019.64
2016-12-19T08:08:03.252Z,1019.64
2016-12-19T08:09:03.252Z,1019.63
2016-12-19T08:10:03.124Z,1019.64
2016-12-19T08:11:03.202Z,1019.61
2016-12-19T08:12:03.126Z,1019.59
2016-12-19T08:13:03.048Z,1019.5
2016-12-19T08:14:03.385Z,1019.54
2016-12-19T08:15:03.528Z,1019.53
2016-12-19T08:16:03.322Z,1019.56
2016-12-19T08:17:03.284Z,1019.52
2016-12-19T08:18:03.426Z,1019.54
2016-12-19T08:19:03.293Z,1019.49
2016-12-19T08:20:03.077Z,1019.53
2016-12-19T08:21:03.218Z,1019.56
2016-12-19T08:22:03.102Z,1019.5
2016-12-19T08:23:03.194Z,1019.57
2016-12-19T08:24:03.173Z,1019.57
2016-12-19T08:25:03.012Z,1019.57
2016-12-19T08:26:03.649Z,1019.59
2016-12-19T08:27:03.402Z,1019.65
2016-12-19T08:28:03.150Z,1019.61
2016-12-19T08:29:03.366Z,1019.62
2016-12-19T08:30:03.506Z,1019.7
2016-12-19T08:31:03.197Z,1019.69
2016-12-19T08:32:03.142Z,1019.68
2016-12-19T08:33:03.198Z,1019.71
2016-12-19T08:34:03.231Z,1019.72
2016-12-19T08:35:03.147Z,1019.69
2016-12-19T08:36:04.037Z,1019.71
2016-12-19T08:37:03.478Z,1019.71
2016-12-19T08:38:03.692Z,1019.71
2016-12-19T08:39:03.328Z,1019.73
2016-12-19T08:40:03.427Z,1019.73
2016-12-19T08:41:04.000Z,1019.76
2016-12-19T08:42:03.848Z,1019.74
2016-12-19T08:43:03.374Z,1019.79
2016-12-19T08:44:03.445Z,1019.8
2016-12-19T08:45:03.365Z,1019.81
2016-12-19T08:46:03.464Z,1019.83
2016-12-19T08:47:03.454Z,1019.87
2016-12-19T08:48:03.730Z,1019.85
2016-12-19T08:49:03.390Z,1019.84
2016-12-19T08:50:03.549Z,1019.84
2016-12-19T08:51:03.762Z,1019.86
2016-12-19T08:52:03.629Z,1019.88
2016-12-19T08:53:03.526Z,1019.89
2016-12-19T08:54:03.814Z,1019.89
2016-12-19T08:55:03.471Z,1019.89
2016-12-19T08:56:03.610Z,1019.94
2016-12-19T08:57:03.593Z,1019.96
2016-12-19T08:58:03.582Z,1019.94
2016-12-19T08:59:03.875Z,1019.92
2016-12-19T09:00:03.582Z,1019.89
2016-12-19T09:01:03.914Z,1019.9
2016-12-19T09:02:03.781Z,1019.87
2016-12-19T09:03:04.044Z,1019.87
2016-12-19T09:04:03.713Z,1019.86
2016-12-19T09:05:03.826Z,1019.82
2016-12-19T09:06:03.730Z,1019.85
2016-12-19T09:07:03.703Z,1019.81
2016-12-19T09:08:03.797Z,1019.87
2016-12-19T09:09:03.700Z,1019.9
2016-12-19T09:10:03.802Z,1019.89
2016-12-19T09:11:03.709Z,1019.93
2016-12-19T09:12:03.964Z,1019.89
2016-12-19T09:13:03.913Z,1019.91
2016-12-19T09:14:03.710Z,1019.92
2016-12-19T09:15:03.984Z,1019.93
2016-12-19T09:16:03.819Z,1019.94
2016-12-19T09:17:03.809Z,1019.96
2016-12-19T09:18:03.753Z,1019.96
2016-12-19T09:19:04.059Z,1019.92
2016-12-19T09:20:04.382Z,1019.97
2016-12-19T09:21:03.941Z,1019.97
2016-12-19T09:22:03.922Z,1019.95
2016-12-19T09:23:03.983Z,1019.97
2016-12-19T09:24:03.982Z,1019.96
2016-12-19T09:25:04.036Z,1019.98
2016-12-19T09:26:04.192Z,1020
2016-12-19T09:27:03.919Z,1020.09
2016-12-19T09:28:04.075Z,1020.08
2016-12-19T09:29:04.384Z,1020.07
2016-12-19T09:30:04.164Z,1020.12
2016-12-19T09:31:04.332Z,1020.1
2016-12-19T09:32:04.016Z,1020.05
2016-12-19T09:33:04.106Z,1020.08
2016-12-19T09:34:04.069Z,1020.05
2016-12-19T09:35:04.291Z,1020.07
2016-12-19T09:36:04.079Z,1020.04
2016-12-19T09:37:04.135Z,1020.03
2016-12-19T09:38:04.426Z,1020.01
2016-12-19T09:39:04.217Z,1020.04
2016-12-19T09:40:04.333Z,1020.02
2016-12-19T09:41:04.415Z,1020.05
2016-12-19T09:42:04.637Z,1020
2016-12-19T09:43:04.336Z,1019.97
2016-12-19T09:44:04.345Z,1019.99
2016-12-19T09:45:04.335Z,1019.99
2016-12-19T09:46:04.748Z,1019.98
2016-12-19T09:47:04.462Z,1019.96
2016-12-19T09:48:04.487Z,1019.96
2016-12-19T09:49:04.510Z,1019.98
2016-12-19T09:50:04.613Z,1019.96
2016-12-19T09:51:04.533Z,1019.99
2016-12-19T09:52:04.345Z,1019.97
2016-12-19T09:53:04.380Z,1019.98
2016-12-19T09:54:04.825Z,1020
2016-12-19T09:55:04.374Z,1020
2016-12-19T09:56:04.388Z,1020
2016-12-19T09:57:04.481Z,1020.01
2016-12-19T09:58:04.511Z,1019.95
2016-12-19T09:59:04.404Z,1019.97
2016-12-19T10:00:04.584Z,1019.93
2016-12-19T10:01:04.596Z,1019.88
2016-12-19T10:02:04.618Z,1019.91
2016-12-19T10:03:04.522Z,1019.92
2016-12-19T10:04:04.492Z,1019.85
2016-12-19T10:05:04.553Z,1019.88
2016-12-19T10:06:04.639Z,1019.88
2016-12-19T10:07:04.632Z,1019.89
2016-12-19T10:08:04.610Z,1019.84
2016-12-19T10:09:04.699Z,1019.8
2016-12-19T10:10:04.848Z,1019.82
2016-12-19T10:11:04.633Z,1019.82
2016-12-19T10:12:04.879Z,1019.85
2016-12-19T10:13:04.644Z,1019.82
2016-12-19T10:14:04.978Z,1019.83
2016-12-19T10:15:04.979Z,1019.81
2016-12-19T10:16:04.683Z,1019.76
2016-12-19T10:17:04.931Z,1019.73
2016-12-19T10:18:05.231Z,1019.67
2016-12-19T10:19:04.716Z,1019.72
2016-12-19T10:20:05.178Z,1019.74
2016-12-19T10:21:04.956Z,1019.74
2016-12-19T10:22:04.904Z,1019.7
2016-12-19T10:23:04.912Z,1019.73
2016-12-19T10:24:04.810Z,1019.74
2016-12-19T10:25:04.995Z,1019.74
2016-12-19T10:26:05.200Z,1019.74
2016-12-19T10:27:04.921Z,1019.72
2016-12-19T10:28:05.008Z,1019.72
2016-12-19T10:29:05.282Z,1019.71
2016-12-19T10:30:05.132Z,1019.72
2016-12-19T10:31:05.118Z,1019.71
2016-12-19T10:32:04.877Z,1019.74
2016-12-19T10:33:05.095Z,1019.7
2016-12-19T10:34:04.929Z,1019.67
2016-12-19T10:35:05.045Z,1019.68
2016-12-19T10:36:04.942Z,1019.68
2016-12-19T10:37:04.967Z,1019.7
2016-12-19T10:38:04.992Z,1019.67
2016-12-19T10:39:04.973Z,1019.63
2016-12-19T10:40:05.013Z,1019.62
2016-12-19T10:41:05.297Z,1019.59
2016-12-19T10:42:05.192Z,1019.59
2016-12-19T10:43:05.181Z,1019.57
2016-12-19T10:44:05.171Z,1019.55
2016-12-19T10:45:05.175Z,1019.52
2016-12-19T10:46:05.156Z,1019.48
2016-12-19T10:47:05.718Z,1019.47
2016-12-19T10:48:05.244Z,1019.42
2016-12-19T10:49:05.430Z,1019.4
2016-12-19T10:50:05.349Z,1019.42
2016-12-19T10:51:05.205Z,1019.4
2016-12-19T10:52:05.467Z,1019.46
2016-12-19T10:53:05.429Z,1019.44
2016-12-19T10:54:05.466Z,1019.48
2016-12-19T10:55:05.633Z,1019.43
2016-12-19T10:56:05.329Z,1019.43
2016-12-19T10:57:05.547Z,1019.32
2016-12-19T10:58:05.321Z,1019.31
2016-12-19T10:59:05.481Z,1019.34
2016-12-19T11:00:05.371Z,1019.28
2016-12-19T11:01:05.557Z,1019.29
2016-12-19T11:02:05.504Z,1019.16
2016-12-19T11:03:05.522Z,1019.2
2016-12-19T11:04:05.517Z,1019.22
2016-12-19T11:05:05.452Z,1019.22
2016-12-19T11:06:05.558Z,1019.24
2016-12-19T11:07:05.635Z,1019.2
2016-12-19T11:08:05.525Z,1019.19
2016-12-19T11:09:05.630Z,1019.18
2016-12-19T11:10:05.656Z,1019.15
2016-12-19T11:11:05.699Z,1019.1
2016-12-19T11:12:05.807Z,1019.04
2016-12-19T11:13:05.897Z,1019.06
2016-12-19T11:14:05.501Z,1019.03
2016-12-19T11:15:05.902Z,1019.05
2016-12-19T11:16:05.617Z,1019.03
2016-12-19T11:17:05.637Z,1018.98
2016-12-19T11:18:05.634Z,1018.92
2016-12-19T11:19:05.575Z,1019.02
2016-12-19T11:20:05.637Z,1018.97
2016-12-19T11:21:05.821Z,1019.01
2016-12-19T11:22:05.939Z,1018.98
2016-12-19T11:23:05.666Z,1018.97
2016-12-19T11:24:05.768Z,1018.9
2016-12-19T11:25:05.781Z,1018.92
2016-12-19T11:26:05.649Z,1018.86
2016-12-19T11:27:06.017Z,1018.87
2016-12-19T11:28:05.821Z,1018.89
2016-12-19T11:29:06.026Z,1018.89
2016-12-19T11:30:05.993Z,1018.92
2016-12-19T11:31:05.835Z,1018.9
2016-12-19T11:32:06.085Z,1018.93
2016-12-19T11:33:05.880Z,1018.97
2016-12-19T11:34:05.906Z,1018.98
2016-12-19T11:35:05.946Z,1018.97
2016-12-19T11:36:05.895Z,1018.92
2016-12-19T11:37:06.001Z,1018.89
2016-12-19T11:38:06.333Z,1018.86
2016-12-19T11:39:06.217Z,1018.88
2016-12-19T11:40:05.987Z,1018.87
2016-12-19T11:41:06.158Z,1018.86
2016-12-19T11:42:06.305Z,1018.88
2016-12-19T11:43:06.158Z,1018.93
2016-12-19T11:44:05.924Z,1018.98
2016-12-19T11:45:05.998Z,1018.97
2016-12-19T11:46:06.131Z,1018.94
2016-12-19T11:47:06.243Z,1018.97
2016-12-19T11:48:06.157Z,1018.91
2016-12-19T11:49:06.259Z,1018.94
2016-12-19T11:50:06.182Z,1018.94
2016-12-19T11:51:06.228Z,1018.87
2016-12-19T11:52:06.331Z,1018.89
2016-12-19T11:53:06.246Z,1018.86
2016-12-19T11:54:06.316Z,1018.91
2016-12-19T11:55:06.153Z,1018.84
2016-12-19T11:56:06.347Z,1018.84
2016-12-19T11:57:06.235Z,1018.85
2016-12-19T11:58:06.319Z,1018.85
2016-12-19T11:59:06.206Z,1018.83
2016-12-19T12:00:06.234Z,1018.82
2016-12-19T12:01:06.340Z,1018.77
2016-12-19T12:02:06.441Z,1018.77
2016-12-19T12:03:06.279Z,1018.73
2016-12-19T12:04:06.636Z,1018.76
2016-12-19T12:05:06.418Z,1018.78
2016-12-19T12:06:06.431Z,1018.79
2016-12-19T12:07:06.629Z,1018.76
2016-12-19T12:08:06.650Z,1018.72
2016-12-19T12:09:06.954Z,1018.69
2016-12-19T12:10:06.501Z,1018.69
2016-12-19T12:11:06.628Z,1018.64
2016-12-19T12:12:06.468Z,1018.64
2016-12-19T12:13:06.591Z,1018.66
2016-12-19T12:14:06.629Z,1018.64
2016-12-19T12:15:06.811Z,1018.62